createdAt,value
2022-09-14T00:02:12.646Z,1000.16
2022-09-14T00:05:20.641Z,1000.11
2022-09-14T00:08:28.492Z,1000.04
2022-09-14T00:12:14.823Z,1000.08
2022-09-14T00:15:23.168Z,1000.04
2022-09-14T00:18:31.016Z,999.97
2022-09-14T00:21:38.739Z,999.90
2022-09-14T00:24:47.188Z,999.99
2022-09-14T00:27:55.557Z,999.97
2022-09-14T00:31:03.179Z,999.95
2022-09-14T00:34:11.350Z,999.92
2022-09-14T00:37:19.406Z,999.96
2022-09-14T00:40:27.295Z,999.94
2022-09-14T00:43:35.555Z,999.97
2022-09-14T00:46:43.443Z,999.94
2022-09-14T00:49:51.483Z,999.90
2022-09-14T00:52:59.895Z,999.95
2022-09-14T00:56:07.696Z,999.89
2022-09-14T00:59:15.186Z,999.97
2022-09-14T01:02:23.161Z,999.81
2022-09-14T01:05:31.089Z,999.82
2022-09-14T01:08:39.095Z,999.79
2022-09-14T01:11:50.978Z,999.80
2022-09-14T01:14:48.764Z,999.75
2022-09-14T01:17:56.412Z,999.74
2022-09-14T01:21:05.612Z,999.76
2022-09-14T01:24:13.511Z,999.83
2022-09-14T01:27:21.293Z,999.76
2022-09-14T01:30:29.792Z,999.62
2022-09-14T01:33:37.373Z,999.75
2022-09-14T01:36:45.356Z,999.73
2022-09-14T01:39:53.683Z,999.78
2022-09-14T01:43:01.277Z,999.83
2022-09-14T01:46:09.483Z,999.85
2022-09-14T01:49:17.905Z,999.78
2022-09-14T01:52:25.509Z,999.78
2022-09-14T01:55:33.709Z,999.83
2022-09-14T01:58:42.399Z,999.81
2022-09-14T02:01:50.569Z,999.73
2022-09-14T02:04:59.848Z,999.75
2022-09-14T02:08:07.836Z,999.72
2022-09-14T02:11:15.764Z,999.66
2022-09-14T02:14:24.107Z,999.67
2022-09-14T02:17:32.194Z,999.56
2022-09-14T02:20:39.694Z,999.54
2022-09-14T02:23:47.548Z,999.50
2022-09-14T02:26:55.731Z,999.47
2022-09-14T02:30:03.417Z,999.39
2022-09-14T02:33:10.958Z,999.41
2022-09-14T02:36:18.779Z,999.56
2022-09-14T02:39:26.708Z,999.47
2022-09-14T02:42:34.518Z,999.47
2022-09-14T02:45:42.080Z,999.58
2022-09-14T02:48:50.002Z,999.48
2022-09-14T02:51:58.295Z,999.52
2022-09-14T02:55:06.178Z,999.58
2022-09-14T02:58:14.142Z,999.57
2022-09-14T03:01:22.526Z,999.50
2022-09-14T03:04:30.055Z,999.46
2022-09-14T03:07:38.085Z,999.29
2022-09-14T03:10:46.306Z,999.30
2022-09-14T03:13:53.747Z,999.26
2022-09-14T03:17:01.671Z,999.31
2022-09-14T03:20:09.448Z,999.12
2022-09-14T03:23:17.372Z,999.21
2022-09-14T03:26:25.429Z,999.31
2022-09-14T03:29:32.940Z,999.25
2022-09-14T03:32:41.254Z,999.26
2022-09-14T03:35:49.131Z,999.19
2022-09-14T03:38:57.188Z,999.15
2022-09-14T03:42:05.444Z,999.20
2022-09-14T03:45:13.225Z,999.16
2022-09-14T03:48:20.914Z,999.15
2022-09-14T03:51:28.509Z,999.00
2022-09-14T03:54:36.426Z,999.05
2022-09-14T03:57:44.468Z,999.06
2022-09-14T04:00:52.335Z,998.97
2022-09-14T04:04:00.669Z,998.98
2022-09-14T04:07:08.178Z,998.93
2022-09-14T04:10:16.471Z,998.92
2022-09-14T04:13:24.921Z,998.91
2022-09-14T04:16:32.548Z,998.83
2022-09-14T04:19:41.022Z,998.80
2022-09-14T04:22:48.773Z,998.79
2022-09-14T04:25:56.703Z,998.76
2022-09-14T04:29:05.044Z,998.78
2022-09-14T04:32:12.965Z,998.83
2022-09-14T04:35:20.704Z,998.82
2022-09-14T04:38:28.659Z,998.91
2022-09-14T04:41:37.048Z,998.85
2022-09-14T04:44:44.911Z,998.86
2022-09-14T04:47:52.787Z,998.76
2022-09-14T04:51:00.551Z,998.75
2022-09-14T04:54:08.449Z,998.72
2022-09-14T04:57:16.321Z,998.79
2022-09-14T05:00:24.762Z,998.79
2022-09-14T05:03:32.271Z,998.79
2022-09-14T05:06:40.313Z,998.84
2022-09-14T05:09:48.670Z,998.88
2022-09-14T05:12:56.275Z,998.83
2022-09-14T05:16:04.777Z,998.83
2022-09-14T05:19:12.682Z,998.83
2022-09-14T05:22:20.794Z,998.83
2022-09-14T05:25:29.397Z,998.75
2022-09-14T05:28:37.379Z,998.79
2022-09-14T05:31:45.962Z,998.74
2022-09-14T05:34:54.890Z,998.74
2022-09-14T05:38:02.790Z,998.75
2022-09-14T05:41:11.496Z,998.73
2022-09-14T05:44:20.272Z,998.78
2022-09-14T05:47:28.553Z,998.63
2022-09-14T05:50:36.763Z,998.63
2022-09-14T05:53:45.333Z,998.62
2022-09-14T05:56:53.454Z,998.66
2022-09-14T06:00:02.346Z,998.68
2022-09-14T06:03:11.206Z,998.67
2022-09-14T06:06:19.401Z,998.65
2022-09-14T06:09:32.988Z,998.66
2022-09-14T06:12:30.839Z,998.61
2022-09-14T06:15:39.193Z,998.67
2022-09-14T06:18:47.677Z,998.66
2022-09-14T06:21:56.377Z,998.61
2022-09-14T06:25:04.859Z,998.61
2022-09-14T06:28:13.298Z,998.52
2022-09-14T06:31:21.992Z,998.60
2022-09-14T06:34:30.373Z,998.56
2022-09-14T06:37:38.898Z,998.51
2022-09-14T06:40:47.762Z,998.47
2022-09-14T06:43:56.229Z,998.52
2022-09-14T06:47:04.439Z,998.50
2022-09-14T06:50:13.245Z,998.51
2022-09-14T06:53:21.010Z,998.52
2022-09-14T06:56:29.518Z,998.45
2022-09-14T06:59:38.430Z,998.45
2022-09-14T07:02:46.883Z,998.47
2022-09-14T07:05:56.273Z,998.53
2022-09-14T07:09:04.193Z,998.55
2022-09-14T07:12:12.904Z,998.53
2022-09-14T07:15:21.394Z,998.58
2022-09-14T07:18:29.354Z,998.49
2022-09-14T07:21:38.896Z,998.48
2022-09-14T07:24:48.563Z,998.47
2022-09-14T07:27:57.030Z,998.38
2022-09-14T07:31:06.391Z,998.47
2022-09-14T07:34:15.094Z,998.38
2022-09-14T07:37:23.902Z,998.36
2022-09-14T07:40:33.363Z,998.40
2022-09-14T07:43:42.422Z,998.41
2022-09-14T07:46:51.235Z,998.39
2022-09-14T07:50:00.552Z,998.41
2022-09-14T07:53:09.436Z,998.47
2022-09-14T07:56:18.526Z,998.31
2022-09-14T07:59:36.529Z,998.32
2022-09-14T08:02:32.840Z,998.40
2022-09-14T08:05:41.111Z,998.37
2022-09-14T08:08:49.796Z,998.39
2022-09-14T08:11:59.271Z,998.43
2022-09-14T08:15:07.731Z,998.42
2022-09-14T08:18:16.664Z,998.41
2022-09-14T08:21:25.147Z,998.41
2022-09-14T08:24:32.974Z,998.37
2022-09-14T08:27:41.156Z,998.26
2022-09-14T08:30:49.696Z,998.19
2022-09-14T08:33:57.621Z,998.15
2022-09-14T08:37:06.468Z,998.11
2022-09-14T08:40:15.182Z,998.09
2022-09-14T08:43:23.319Z,998.24
2022-09-14T08:46:32.172Z,998.12
2022-09-14T08:49:41.629Z,998.13
2022-09-14T08:52:49.613Z,998.13
2022-09-14T08:55:58.176Z,998.17
2022-09-14T08:59:08.394Z,998.12
2022-09-14T09:02:16.197Z,998.11
2022-09-14T09:05:24.866Z,998.16
2022-09-14T09:08:33.029Z,998.10
2022-09-14T09:11:42.647Z,998.05
2022-09-14T09:14:52.001Z,998.02
2022-09-14T09:18:00.581Z,998.05
2022-09-14T09:21:09.684Z,998.01
2022-09-14T09:24:17.974Z,997.91
2022-09-14T09:27:26.226Z,997.90
2022-09-14T09:30:34.505Z,997.81
2022-09-14T09:33:42.824Z,997.79
2022-09-14T09:36:51.358Z,997.73
2022-09-14T09:39:59.822Z,997.69
2022-09-14T09:43:09.457Z,997.68
2022-09-14T09:46:18.462Z,997.74
2022-09-14T09:49:26.611Z,997.72
2022-09-14T09:52:35.034Z,997.79
2022-09-14T09:55:42.924Z,997.67
2022-09-14T09:58:51.473Z,997.67
2022-09-14T10:02:00.639Z,997.58
2022-09-14T10:05:08.795Z,997.39
2022-09-14T10:08:16.579Z,997.34
2022-09-14T10:11:25.568Z,997.28
2022-09-14T10:14:33.791Z,997.32
2022-09-14T10:17:42.191Z,997.33
2022-09-14T10:20:49.693Z,997.23
2022-09-14T10:23:58.183Z,997.25
2022-09-14T10:27:06.717Z,997.31
2022-09-14T10:30:14.945Z,997.30
2022-09-14T10:33:23.628Z,997.40
2022-09-14T10:36:31.577Z,997.43
2022-09-14T10:39:39.862Z,997.39
2022-09-14T10:42:48.487Z,997.46
2022-09-14T10:45:57.079Z,997.46
2022-09-14T10:49:05.132Z,997.41
2022-09-14T10:52:12.864Z,997.30
2022-09-14T10:55:21.340Z,997.33
2022-09-14T10:58:30.267Z,997.34
2022-09-14T11:01:37.836Z,997.27
2022-09-14T11:04:46.001Z,997.27
2022-09-14T11:07:53.489Z,997.39
2022-09-14T11:11:02.057Z,997.34
2022-09-14T11:14:10.762Z,997.18
2022-09-14T11:17:18.677Z,997.19
2022-09-14T11:20:27.722Z,997.09
2022-09-14T11:23:36.374Z,997.14
2022-09-14T11:26:44.813Z,997.09
2022-09-14T11:29:53.388Z,997.06
2022-09-14T11:33:02.351Z,997.07
2022-09-14T11:36:10.190Z,997.10
2022-09-14T11:39:18.385Z,997.08
2022-09-14T11:42:27.150Z,997.12
2022-09-14T11:45:35.488Z,997.10
2022-09-14T11:48:44.172Z,997.01
2022-09-14T11:51:52.594Z,997.07
2022-09-14T11:55:00.078Z,996.99
2022-09-14T11:58:09.001Z,997.06
2022-09-14T12:01:18.059Z,996.99
2022-09-14T12:04:26.309Z,996.96
2022-09-14T12:07:34.673Z,997.01
2022-09-14T12:10:45.869Z,997.02
2022-09-14T12:13:43.465Z,997.08
2022-09-14T12:16:52.604Z,997.11
2022-09-14T12:20:01.219Z,997.14
2022-09-14T12:23:09.694Z,997.08
2022-09-14T12:26:18.206Z,997.05
2022-09-14T12:29:26.199Z,996.96
2022-09-14T12:32:34.153Z,996.88
2022-09-14T12:35:42.555Z,996.91
2022-09-14T12:38:51.263Z,996.83
2022-09-14T12:41:59.832Z,996.82
2022-09-14T12:45:08.352Z,996.79
2022-09-14T12:48:16.888Z,996.73
2022-09-14T12:51:25.993Z,996.69
2022-09-14T12:54:34.537Z,996.76
2022-09-14T12:57:42.480Z,996.79
2022-09-14T13:00:50.506Z,996.83
2022-09-14T13:03:58.604Z,996.80
2022-09-14T13:07:06.464Z,996.78
2022-09-14T13:10:14.723Z,996.65
2022-09-14T13:13:23.617Z,996.63
2022-09-14T13:16:31.337Z,996.59
2022-09-14T13:19:40.178Z,996.63
2022-09-14T13:22:48.256Z,996.63
2022-09-14T13:25:55.728Z,996.67
2022-09-14T13:29:04.772Z,996.63
2022-09-14T13:32:13.520Z,996.58
2022-09-14T13:35:22.213Z,996.56
2022-09-14T13:38:31.076Z,996.51
2022-09-14T13:41:39.072Z,996.47
2022-09-14T13:44:47.498Z,996.46
2022-09-14T13:47:55.623Z,996.52
2022-09-14T13:51:03.756Z,996.46
2022-09-14T13:54:11.878Z,996.47
2022-09-14T13:57:19.945Z,996.44
2022-09-14T14:00:29.172Z,996.47
2022-09-14T14:03:37.860Z,996.38
2022-09-14T14:06:46.173Z,996.40
2022-09-14T14:09:55.302Z,996.35
2022-09-14T14:13:03.857Z,996.38
2022-09-14T14:16:13.391Z,996.34
2022-09-14T14:19:22.689Z,996.32
2022-09-14T14:22:31.087Z,996.21
2022-09-14T14:25:45.791Z,996.28
2022-09-14T14:28:44.324Z,996.27
2022-09-14T14:31:52.865Z,996.20
2022-09-14T14:35:01.352Z,996.12
2022-09-14T14:38:09.625Z,996.04
2022-09-14T14:41:18.549Z,995.97
2022-09-14T14:44:27.687Z,995.99
2022-09-14T14:47:36.045Z,995.92
2022-09-14T14:50:44.926Z,995.98
2022-09-14T14:53:53.849Z,996.05
2022-09-14T14:57:02.885Z,995.89
2022-09-14T15:00:11.967Z,995.82
2022-09-14T15:03:20.944Z,995.80
2022-09-14T15:06:29.831Z,995.92
2022-09-14T15:09:37.974Z,995.85
2022-09-14T15:12:46.982Z,995.80
2022-09-14T15:15:56.099Z,995.86
2022-09-14T15:19:04.888Z,995.83
2022-09-14T15:22:14.333Z,995.83
2022-09-14T15:25:23.068Z,995.79
2022-09-14T15:28:31.646Z,995.78
2022-09-14T15:31:40.779Z,995.85
2022-09-14T15:34:49.594Z,995.76
2022-09-14T15:37:57.411Z,995.79
2022-09-14T15:41:05.954Z,995.71
2022-09-14T15:44:14.275Z,995.72
2022-09-14T15:47:22.942Z,995.67
2022-09-14T15:50:31.959Z,995.53
2022-09-14T15:53:39.982Z,995.59
2022-09-14T15:56:48.011Z,995.58
2022-09-14T15:59:56.349Z,995.69
2022-09-14T16:03:04.221Z,995.70
2022-09-14T16:06:12.792Z,995.64
2022-09-14T16:09:21.723Z,995.64
2022-09-14T16:12:29.802Z,995.75
2022-09-14T16:15:39.032Z,995.66
2022-09-14T16:18:48.264Z,995.59
2022-09-14T16:21:56.169Z,995.59
2022-09-14T16:25:04.607Z,995.61
2022-09-14T16:28:13.803Z,995.70
2022-09-14T16:31:22.289Z,995.73
2022-09-14T16:34:30.581Z,995.76
2022-09-14T16:37:38.371Z,995.70
2022-09-14T16:40:46.571Z,995.76
2022-09-14T16:43:55.413Z,995.72
2022-09-14T16:47:04.264Z,995.69
2022-09-14T16:50:12.903Z,995.70
2022-09-14T16:53:20.856Z,995.77
2022-09-14T16:56:30.531Z,995.85
2022-09-14T16:59:38.889Z,995.87
2022-09-14T17:02:47.970Z,995.71
2022-09-14T17:05:57.050Z,995.69
2022-09-14T17:09:05.160Z,995.72
2022-09-14T17:12:13.301Z,995.58
2022-09-14T17:15:21.556Z,995.57
2022-09-14T17:18:29.003Z,995.59
2022-09-14T17:21:37.041Z,995.54
2022-09-14T17:24:45.175Z,995.52
2022-09-14T17:27:52.596Z,995.55
2022-09-14T17:31:00.493Z,995.51
2022-09-14T17:34:08.997Z,995.53
2022-09-14T17:37:16.440Z,995.60
2022-09-14T17:40:24.843Z,995.56
2022-09-14T17:43:32.451Z,995.54
2022-09-14T17:46:49.627Z,995.60
2022-09-14T17:49:45.535Z,995.52
2022-09-14T17:52:53.354Z,995.48
2022-09-14T17:56:01.252Z,995.42
2022-09-14T17:59:09.574Z,995.49
2022-09-14T18:02:17.355Z,995.51
2022-09-14T18:05:25.283Z,995.61
2022-09-14T18:08:32.980Z,995.60
2022-09-14T18:11:41.423Z,995.55
2022-09-14T18:14:49.842Z,995.47
2022-09-14T18:17:57.241Z,995.48
2022-09-14T18:21:05.586Z,995.59
2022-09-14T18:24:13.655Z,995.71
2022-09-14T18:27:21.489Z,995.71
2022-09-14T18:30:29.525Z,995.66
2022-09-14T18:33:38.142Z,995.67
2022-09-14T18:36:46.201Z,995.71
2022-09-14T18:39:54.171Z,995.76
2022-09-14T18:43:01.758Z,995.81
2022-09-14T18:46:10.192Z,995.88
2022-09-14T18:49:18.681Z,995.78
2022-09-14T18:52:26.952Z,995.83
2022-09-14T18:55:36.265Z,995.88
2022-09-14T18:58:44.053Z,995.92
2022-09-14T19:01:51.644Z,995.89
2022-09-14T19:05:00.714Z,995.95
2022-09-14T19:08:08.946Z,995.99
2022-09-14T19:11:18.826Z,995.94
2022-09-14T19:14:27.969Z,995.88
2022-09-14T19:17:35.625Z,995.87
2022-09-14T19:21:05.455Z,995.95
2022-09-14T19:23:48.943Z,995.99
2022-09-14T19:26:56.579Z,995.97
2022-09-14T19:30:04.848Z,995.98
2022-09-14T19:33:12.860Z,995.98
2022-09-14T19:36:20.982Z,996.00
2022-09-14T19:39:28.793Z,995.99
2022-09-14T19:42:37.664Z,996.03
2022-09-14T19:45:45.936Z,995.99
2022-09-14T19:48:53.984Z,996.05
2022-09-14T19:52:01.988Z,996.03
2022-09-14T19:55:10.358Z,996.07
2022-09-14T19:58:18.149Z,996.03
2022-09-14T20:01:25.999Z,996.06
2022-09-14T20:04:34.011Z,996.17
2022-09-14T20:07:41.394Z,996.18
2022-09-14T20:10:49.543Z,996.17
2022-09-14T20:13:57.672Z,996.15
2022-09-14T20:17:05.025Z,996.19
2022-09-14T20:20:13.186Z,996.21
2022-09-14T20:23:20.596Z,996.26
2022-09-14T20:26:28.758Z,996.25
2022-09-14T20:29:36.906Z,996.27
2022-09-14T20:32:44.857Z,996.29
2022-09-14T20:35:52.826Z,996.25
2022-09-14T20:39:00.628Z,996.22
2022-09-14T20:42:08.827Z,996.25
2022-09-14T20:45:16.721Z,996.27
2022-09-14T20:48:24.350Z,996.31
2022-09-14T20:51:32.642Z,996.41
2022-09-14T20:54:40.044Z,996.36
2022-09-14T20:57:48.365Z,996.41
2022-09-14T21:00:56.543Z,996.37
2022-09-14T21:04:03.946Z,996.40
2022-09-14T21:07:12.370Z,996.37
2022-09-14T21:10:20.296Z,996.34
2022-09-14T21:13:27.947Z,996.36
2022-09-14T21:16:36.198Z,996.39
2022-09-14T21:19:43.960Z,996.31
2022-09-14T21:22:51.692Z,996.35
2022-09-14T21:25:59.358Z,996.40
2022-09-14T21:29:07.593Z,996.42
2022-09-14T21:32:15.406Z,996.48
2022-09-14T21:35:23.299Z,996.42
2022-09-14T21:38:31.536Z,996.39
2022-09-14T21:41:39.438Z,996.45
2022-09-14T21:44:47.288Z,996.48
2022-09-14T21:47:55.448Z,996.41
2022-09-14T21:51:02.829Z,996.46
2022-09-14T21:54:11.161Z,996.37
2022-09-14T21:57:18.870Z,996.48
2022-09-14T22:00:30.649Z,996.47
2022-09-14T22:03:28.192Z,996.41
2022-09-14T22:06:36.221Z,996.32
2022-09-14T22:09:44.032Z,996.34
2022-09-14T22:12:52.253Z,996.32
2022-09-14T22:16:00.182Z,996.34
2022-09-14T22:19:07.928Z,996.34
2022-09-14T22:22:16.065Z,996.34
2022-09-14T22:25:23.800Z,996.29
2022-09-14T22:28:31.559Z,996.29
2022-09-14T22:31:38.948Z,996.27
2022-09-14T22:34:49.611Z,996.34
2022-09-14T22:37:57.442Z,996.35
2022-09-14T22:41:05.241Z,996.32
2022-09-14T22:44:13.485Z,996.26
2022-09-14T22:47:21.282Z,996.21
2022-09-14T22:50:28.639Z,996.19
2022-09-14T22:53:37.004Z,996.24
2022-09-14T22:56:44.965Z,996.24
2022-09-14T22:59:52.457Z,996.20
2022-09-14T23:03:00.613Z,996.18
2022-09-14T23:06:08.028Z,996.17
2022-09-14T23:09:16.038Z,996.22
2022-09-14T23:12:24.300Z,996.11
2022-09-14T23:15:31.679Z,996.11
2022-09-14T23:18:39.724Z,996.12
2022-09-14T23:21:47.681Z,996.07
2022-09-14T23:24:54.983Z,996.14
2022-09-14T23:28:02.892Z,996.09
2022-09-14T23:31:10.796Z,996.09
2022-09-14T23:34:18.253Z,996.04
2022-09-14T23:37:25.913Z,996.07
2022-09-14T23:40:33.894Z,996.15
2022-09-14T23:43:41.659Z,996.14
2022-09-14T23:46:49.348Z,996.20
2022-09-14T23:49:57.276Z,996.18
2022-09-14T23:53:04.888Z,996.18
2022-09-14T23:56:12.509Z,996.26
2022-09-14T23:59:20.540Z,996.25
